createdAt,value
2023-01-29T00:02:46.871Z,100985.00
2023-01-29T00:05:50.094Z,100979.37
2023-01-29T00:08:52.635Z,100980.94
2023-01-29T00:11:55.778Z,100978.81
2023-01-29T00:14:58.356Z,100987.34
2023-01-29T00:18:01.586Z,100990.13
2023-01-29T00:21:04.442Z,100998.63
2023-01-29T00:24:07.791Z,100995.53
2023-01-29T00:27:11.236Z,100997.38
2023-01-29T00:30:19.353Z,101002.44
2023-01-29T00:33:22.161Z,101007.59
2023-01-29T00:36:26.452Z,101015.53
2023-01-29T00:39:47.502Z,101011.47
2023-01-29T00:43:10.080Z,101017.53
2023-01-29T00:46:14.515Z,101009.44
2023-01-29T00:49:17.667Z,101012.09
2023-01-29T00:52:26.363Z,101012.63
2023-01-29T00:55:29.464Z,101012.78
2023-01-29T00:58:34.448Z,101020.09
2023-01-29T01:01:56.411Z,101016.75
2023-01-29T01:04:59.068Z,101025.12
2023-01-29T01:08:02.240Z,101019.28
2023-01-29T01:11:06.829Z,101024.81
2023-01-29T01:14:09.968Z,101016.75
2023-01-29T01:17:12.528Z,101018.72
2023-01-29T01:20:16.381Z,101015.66
2023-01-29T01:23:19.714Z,101025.47
2023-01-29T01:26:22.806Z,101024.97
2023-01-29T01:29:25.469Z,101023.84
2023-01-29T01:32:28.723Z,101025.88
2023-01-29T01:35:31.247Z,101026.13
2023-01-29T01:38:34.556Z,101030.88
2023-01-29T01:41:37.165Z,101030.25
2023-01-29T01:45:10.364Z,101027.31
2023-01-29T01:48:19.743Z,101039.94
2023-01-29T01:51:26.329Z,101035.47
2023-01-29T01:54:32.343Z,101037.34
2023-01-29T01:57:36.529Z,101037.66
2023-01-29T02:00:39.589Z,101037.44
2023-01-29T02:04:12.215Z,101035.91
2023-01-29T02:07:34.749Z,101033.50
2023-01-29T02:10:46.792Z,101038.25
2023-01-29T02:13:53.864Z,101041.59
2023-01-29T02:17:02.030Z,101051.66
2023-01-29T02:20:12.141Z,101046.87
2023-01-29T02:23:29.367Z,101047.91
2023-01-29T02:26:32.288Z,101050.63
2023-01-29T02:29:50.375Z,101058.84
2023-01-29T02:33:17.276Z,101064.37
2023-01-29T02:36:22.933Z,101062.16
2023-01-29T02:39:34.122Z,101058.44
2023-01-29T02:42:59.737Z,101062.31
2023-01-29T02:46:20.949Z,101069.91
2023-01-29T02:49:36.097Z,101073.00
2023-01-29T02:52:56.847Z,101063.97
2023-01-29T02:56:09.870Z,101073.28
2023-01-29T02:59:17.647Z,101075.84
2023-01-29T03:02:29.244Z,101086.75
2023-01-29T03:05:55.106Z,101078.69
2023-01-29T03:09:33.015Z,101086.62
2023-01-29T03:12:41.140Z,101091.16
2023-01-29T03:15:51.264Z,101085.63
2023-01-29T03:19:04.077Z,101083.56
2023-01-29T03:22:10.784Z,101082.53
2023-01-29T03:25:34.231Z,101085.75
2023-01-29T03:28:59.275Z,101088.72
2023-01-29T03:32:08.773Z,101092.44
2023-01-29T03:35:21.067Z,101095.25
2023-01-29T03:38:29.546Z,101102.72
2023-01-29T03:41:38.662Z,101099.38
2023-01-29T03:44:41.807Z,101095.38
2023-01-29T03:48:15.159Z,101099.88
2023-01-29T03:51:28.338Z,101107.31
2023-01-29T03:54:51.630Z,101113.62
2023-01-29T03:58:05.005Z,101102.81
2023-01-29T04:01:23.126Z,101097.81
2023-01-29T04:04:37.981Z,101097.53
2023-01-29T04:07:44.316Z,101092.91
2023-01-29T04:10:49.493Z,101093.94
2023-01-29T04:13:52.725Z,101098.44
2023-01-29T04:17:00.251Z,101091.84
2023-01-29T04:20:05.907Z,101098.69
2023-01-29T04:23:21.406Z,101095.84
2023-01-29T04:26:27.480Z,101100.06
2023-01-29T04:29:50.963Z,101095.06
2023-01-29T04:33:14.786Z,101094.94
2023-01-29T04:36:32.988Z,101088.81
2023-01-29T04:39:54.179Z,101089.22
2023-01-29T04:43:46.313Z,101094.37
2023-01-29T04:47:02.307Z,101104.44
2023-01-29T04:50:33.792Z,101104.44
2023-01-29T04:53:45.104Z,101103.25
2023-01-29T04:56:53.696Z,101100.94
2023-01-29T05:00:22.473Z,101099.91
2023-01-29T05:03:27.584Z,101099.59
2023-01-29T05:06:32.311Z,101099.72
2023-01-29T05:09:37.356Z,101090.47
2023-01-29T05:12:43.674Z,101096.12
2023-01-29T05:15:59.021Z,101092.53
2023-01-29T05:19:01.876Z,101099.88
2023-01-29T05:22:06.417Z,101103.22
2023-01-29T05:25:30.376Z,101104.78
2023-01-29T05:28:33.068Z,101094.97
2023-01-29T05:31:35.763Z,101091.78
2023-01-29T05:34:38.646Z,101090.00
2023-01-29T05:37:41.675Z,101099.75
2023-01-29T05:40:44.744Z,101095.91
2023-01-29T05:43:47.704Z,101094.34
2023-01-29T05:46:51.161Z,101093.34
2023-01-29T05:49:54.944Z,101095.50
2023-01-29T05:52:59.241Z,101087.00
2023-01-29T05:56:03.265Z,101096.28
2023-01-29T05:59:07.356Z,101105.56
2023-01-29T06:02:10.162Z,101105.28
2023-01-29T06:05:14.004Z,101107.84
2023-01-29T06:08:16.793Z,101104.47
2023-01-29T06:11:20.614Z,101107.06
2023-01-29T06:14:23.447Z,101111.44
2023-01-29T06:17:26.280Z,101116.09
2023-01-29T06:20:29.069Z,101118.78
2023-01-29T06:23:32.178Z,101127.91
2023-01-29T06:26:35.143Z,101132.06
2023-01-29T06:29:38.159Z,101134.87
2023-01-29T06:32:41.122Z,101144.03
2023-01-29T06:35:44.010Z,101150.50
2023-01-29T06:38:47.338Z,101161.44
2023-01-29T06:41:50.124Z,101153.19
2023-01-29T06:44:52.911Z,101159.53
2023-01-29T06:47:56.585Z,101162.59
2023-01-29T06:51:07.815Z,101170.34
2023-01-29T06:54:11.314Z,101176.91
2023-01-29T06:57:13.953Z,101177.69
2023-01-29T07:00:17.432Z,101169.56
2023-01-29T07:03:20.575Z,101166.72
2023-01-29T07:06:28.092Z,101168.28
2023-01-29T07:09:31.192Z,101161.28
2023-01-29T07:12:34.030Z,101164.28
2023-01-29T07:15:37.355Z,101169.97
2023-01-29T07:18:40.248Z,101165.87
2023-01-29T07:21:43.089Z,101166.22
2023-01-29T07:24:45.964Z,101160.50
2023-01-29T07:27:49.702Z,101153.13
2023-01-29T07:30:59.217Z,101153.66
2023-01-29T07:34:02.275Z,101151.56
2023-01-29T07:37:06.323Z,101148.09
2023-01-29T07:40:11.445Z,101146.75
2023-01-29T07:43:17.228Z,101138.50
2023-01-29T07:46:20.213Z,101132.84
2023-01-29T07:49:22.987Z,101132.19
2023-01-29T07:52:25.847Z,101137.56
2023-01-29T07:55:28.721Z,101130.97
2023-01-29T07:58:31.561Z,101144.28
2023-01-29T08:01:34.431Z,101149.69
2023-01-29T08:04:37.692Z,101134.22
2023-01-29T08:07:40.175Z,101147.25
2023-01-29T08:10:43.503Z,101139.47
2023-01-29T08:13:46.763Z,101144.00
2023-01-29T08:16:50.512Z,101140.66
2023-01-29T08:19:53.190Z,101143.34
2023-01-29T08:23:05.078Z,101151.94
2023-01-29T08:26:07.855Z,101149.59
2023-01-29T08:29:12.194Z,101151.41
2023-01-29T08:32:14.844Z,101154.25
2023-01-29T08:35:18.138Z,101157.75
2023-01-29T08:38:21.619Z,101160.22
2023-01-29T08:41:24.820Z,101162.53
2023-01-29T08:44:27.376Z,101168.50
2023-01-29T08:47:30.461Z,101181.66
2023-01-29T08:50:34.923Z,101172.78
2023-01-29T08:53:38.054Z,101186.50
2023-01-29T08:56:40.593Z,101190.47
2023-01-29T08:59:43.715Z,101193.19
2023-01-29T09:02:46.348Z,101203.53
2023-01-29T09:05:49.579Z,101205.34
2023-01-29T09:08:52.153Z,101201.75
2023-01-29T09:11:55.321Z,101201.22
2023-01-29T09:14:58.024Z,101205.72
2023-01-29T09:18:04.378Z,101207.50
2023-01-29T09:21:07.215Z,101204.69
2023-01-29T09:24:10.863Z,101199.13
2023-01-29T09:27:13.457Z,101207.13
2023-01-29T09:30:17.309Z,101206.56
2023-01-29T09:33:20.565Z,101207.63
2023-01-29T09:36:23.886Z,101204.28
2023-01-29T09:39:26.417Z,101208.78
2023-01-29T09:42:44.138Z,101208.19
2023-01-29T09:46:05.586Z,101207.78
2023-01-29T09:49:26.667Z,101209.97
2023-01-29T09:52:45.716Z,101220.16
2023-01-29T09:56:02.380Z,101207.38
2023-01-29T09:59:05.058Z,101211.78
2023-01-29T10:02:53.388Z,101211.78
2023-01-29T10:06:15.410Z,101213.56
2023-01-29T10:09:27.316Z,101215.88
2023-01-29T10:12:48.796Z,101213.13
2023-01-29T10:16:48.690Z,101220.47
2023-01-29T10:20:05.307Z,101218.94
2023-01-29T10:23:34.739Z,101222.16
2023-01-29T10:26:40.662Z,101223.16
2023-01-29T10:29:46.928Z,101211.47
2023-01-29T10:32:54.441Z,101200.09
2023-01-29T10:36:03.313Z,101212.28
2023-01-29T10:39:22.015Z,101221.47
2023-01-29T10:42:35.436Z,101215.69
2023-01-29T10:45:57.537Z,101217.25
2023-01-29T10:49:37.263Z,101214.03
2023-01-29T10:53:18.244Z,101201.38
2023-01-29T10:56:30.069Z,101203.34
2023-01-29T11:00:12.834Z,101201.41
2023-01-29T11:03:28.612Z,101192.47
2023-01-29T11:06:36.901Z,101176.78
2023-01-29T11:10:00.624Z,101170.38
2023-01-29T11:13:05.419Z,101173.84
2023-01-29T11:16:09.404Z,101184.62
2023-01-29T11:19:13.149Z,101172.25
2023-01-29T11:22:20.183Z,101165.53
2023-01-29T11:25:24.727Z,101163.00
2023-01-29T11:28:41.023Z,101153.03
2023-01-29T11:31:44.384Z,101155.37
2023-01-29T11:35:16.422Z,101152.25
2023-01-29T11:38:24.145Z,101141.34
2023-01-29T11:41:27.039Z,101139.56
2023-01-29T11:44:39.693Z,101139.88
2023-01-29T11:47:42.417Z,101119.13
2023-01-29T11:50:52.920Z,101117.16
2023-01-29T11:53:58.584Z,101115.44
2023-01-29T11:57:03.575Z,101104.56
2023-01-29T12:00:31.478Z,101098.41
2023-01-29T12:03:43.720Z,101098.28
2023-01-29T12:06:52.069Z,101100.31
2023-01-29T12:09:58.000Z,101100.09
2023-01-29T12:13:22.317Z,101091.34
2023-01-29T12:16:32.196Z,101092.81
2023-01-29T12:19:47.658Z,101092.16
2023-01-29T12:22:58.604Z,101087.53
2023-01-29T12:26:07.967Z,101089.34
2023-01-29T12:29:32.566Z,101086.88
2023-01-29T12:32:42.309Z,101087.66
2023-01-29T12:35:54.885Z,101079.78
2023-01-29T12:38:59.025Z,101076.97
2023-01-29T12:42:09.109Z,101078.31
2023-01-29T12:45:19.140Z,101086.91
2023-01-29T12:48:31.548Z,101082.41
2023-01-29T12:51:40.783Z,101076.22
2023-01-29T12:54:53.813Z,101077.66
2023-01-29T12:58:13.977Z,101080.41
2023-01-29T13:01:32.053Z,101074.19
2023-01-29T13:04:43.602Z,101068.78
2023-01-29T13:08:06.063Z,101058.16
2023-01-29T13:11:27.548Z,101058.03
2023-01-29T13:14:52.801Z,101057.56
2023-01-29T13:18:11.593Z,101032.12
2023-01-29T13:21:40.102Z,101038.75
2023-01-29T13:24:47.881Z,101026.47
2023-01-29T13:27:53.906Z,101023.78
2023-01-29T13:31:21.676Z,101006.22
2023-01-29T13:34:28.577Z,101004.31
2023-01-29T13:37:34.600Z,100991.78
2023-01-29T13:40:38.504Z,100991.91
2023-01-29T13:43:43.662Z,101004.91
2023-01-29T13:47:24.234Z,101009.25
2023-01-29T13:50:41.570Z,101023.59
2023-01-29T13:53:54.091Z,101024.06
2023-01-29T13:57:01.988Z,101026.66
2023-01-29T14:00:06.599Z,101018.25
2023-01-29T14:03:11.781Z,101019.38
2023-01-29T14:06:40.631Z,101010.84
2023-01-29T14:09:43.385Z,101023.41
2023-01-29T14:12:47.802Z,101031.78
2023-01-29T14:15:56.584Z,101030.37
2023-01-29T14:19:02.132Z,101033.47
2023-01-29T14:22:18.976Z,101039.06
2023-01-29T14:25:28.734Z,101049.31
2023-01-29T14:28:33.615Z,101045.78
2023-01-29T14:31:39.136Z,101045.31
2023-01-29T14:34:49.763Z,101052.94
2023-01-29T14:37:57.593Z,101059.81
2023-01-29T14:41:07.640Z,101059.12
2023-01-29T14:44:44.803Z,101060.37
2023-01-29T14:47:47.576Z,101055.78
2023-01-29T14:50:52.164Z,101062.66
2023-01-29T14:54:02.699Z,101055.66
2023-01-29T14:57:13.471Z,101060.25
2023-01-29T15:00:24.361Z,101053.50
2023-01-29T15:03:40.099Z,101061.19
2023-01-29T15:06:57.834Z,101052.84
2023-01-29T15:10:22.281Z,101054.50
2023-01-29T15:13:36.000Z,101054.41
2023-01-29T15:17:06.339Z,101053.16
2023-01-29T15:20:33.256Z,101047.25
2023-01-29T15:23:36.121Z,101045.69
2023-01-29T15:26:43.051Z,101047.41
2023-01-29T15:30:03.874Z,101040.84
2023-01-29T15:33:10.622Z,101038.78
2023-01-29T15:36:29.927Z,101042.94
2023-01-29T15:39:42.847Z,101041.66
2023-01-29T15:42:48.764Z,101041.13
2023-01-29T15:45:55.593Z,101047.56
2023-01-29T15:49:05.951Z,101057.16
2023-01-29T15:52:19.250Z,101056.41
2023-01-29T15:55:24.009Z,101059.38
2023-01-29T15:58:32.263Z,101051.28
2023-01-29T16:01:38.369Z,101059.72
2023-01-29T16:04:41.443Z,101050.59
2023-01-29T16:07:45.506Z,101057.44
2023-01-29T16:10:53.824Z,101061.00
2023-01-29T16:13:57.123Z,101059.72
2023-01-29T16:17:25.022Z,101065.41
2023-01-29T16:20:35.243Z,101067.44
2023-01-29T16:23:48.961Z,101057.94
2023-01-29T16:26:53.469Z,101066.12
2023-01-29T16:29:56.467Z,101070.84
2023-01-29T16:33:08.245Z,101072.53
2023-01-29T16:36:19.570Z,101075.09
2023-01-29T16:39:25.417Z,101078.16
2023-01-29T16:42:30.426Z,101088.28
2023-01-29T16:45:33.314Z,101089.53
2023-01-29T16:48:36.281Z,101090.03
2023-01-29T16:51:39.540Z,101093.41
2023-01-29T16:54:44.720Z,101108.50
2023-01-29T16:57:55.470Z,101104.63
2023-01-29T17:01:09.135Z,101098.50
2023-01-29T17:04:14.649Z,101103.50
2023-01-29T17:07:21.414Z,101097.19
2023-01-29T17:10:26.020Z,101101.84
2023-01-29T17:13:36.336Z,101094.91
2023-01-29T17:16:55.761Z,101092.34
2023-01-29T17:20:09.646Z,101087.81
2023-01-29T17:23:12.524Z,101091.28
2023-01-29T17:26:15.657Z,101091.19
2023-01-29T17:29:20.779Z,101083.81
2023-01-29T17:32:25.220Z,101082.22
2023-01-29T17:35:48.938Z,101074.44
2023-01-29T17:38:52.141Z,101071.16
2023-01-29T17:41:57.786Z,101060.75
2023-01-29T17:45:00.693Z,101066.78
2023-01-29T17:48:03.768Z,101054.94
2023-01-29T17:51:10.915Z,101062.91
2023-01-29T17:54:13.705Z,101062.88
2023-01-29T17:57:16.904Z,101048.69
2023-01-29T18:00:24.551Z,101046.75
2023-01-29T18:03:27.783Z,101040.53
2023-01-29T18:06:31.016Z,101044.34
2023-01-29T18:09:34.029Z,101040.53
2023-01-29T18:12:36.944Z,101045.59
2023-01-29T18:15:40.368Z,101042.84
2023-01-29T18:18:43.408Z,101038.41
2023-01-29T18:21:46.624Z,101034.59
2023-01-29T18:24:49.494Z,101038.75
2023-01-29T18:27:52.329Z,101033.41
2023-01-29T18:30:55.412Z,101028.44
2023-01-29T18:33:58.400Z,101029.81
2023-01-29T18:37:01.260Z,101026.56
2023-01-29T18:40:05.337Z,101033.75
2023-01-29T18:43:08.462Z,101029.87
2023-01-29T18:46:11.520Z,101024.38
2023-01-29T18:49:14.537Z,101020.88
2023-01-29T18:52:18.188Z,101026.78
2023-01-29T18:55:24.169Z,101029.41
2023-01-29T18:58:35.308Z,101034.25
2023-01-29T19:01:40.257Z,101027.41
2023-01-29T19:04:43.351Z,101026.84
2023-01-29T19:07:46.182Z,101031.06
2023-01-29T19:10:49.080Z,101032.75
2023-01-29T19:13:51.966Z,101038.97
2023-01-29T19:16:56.069Z,101036.19
2023-01-29T19:20:02.167Z,101027.91
2023-01-29T19:23:05.089Z,101022.34
2023-01-29T19:26:09.052Z,101021.31
2023-01-29T19:29:17.727Z,101013.75
2023-01-29T19:32:20.725Z,101025.53
2023-01-29T19:35:23.848Z,101022.06
2023-01-29T19:38:27.892Z,101024.34
2023-01-29T19:41:31.139Z,101017.69
2023-01-29T19:44:35.599Z,101011.25
2023-01-29T19:47:41.548Z,101007.66
2023-01-29T19:50:58.192Z,101009.66
2023-01-29T19:54:02.323Z,101011.09
2023-01-29T19:57:06.926Z,101009.66
2023-01-29T20:00:15.511Z,101014.16
2023-01-29T20:03:18.813Z,101020.59
2023-01-29T20:06:28.617Z,101018.94
2023-01-29T20:09:31.939Z,101015.97
2023-01-29T20:12:34.939Z,101020.47
2023-01-29T20:15:38.203Z,101011.09
2023-01-29T20:18:40.813Z,101020.31
2023-01-29T20:21:46.813Z,101003.31
2023-01-29T20:24:49.499Z,100998.44
2023-01-29T20:27:52.680Z,100989.28
2023-01-29T20:30:56.432Z,100993.13
2023-01-29T20:34:00.042Z,100987.72
2023-01-29T20:37:03.147Z,100981.28
2023-01-29T20:40:06.830Z,100978.84
2023-01-29T20:43:09.508Z,100989.37
2023-01-29T20:46:13.008Z,100981.03
2023-01-29T20:49:17.370Z,100975.78
2023-01-29T20:52:20.616Z,100988.81
2023-01-29T20:55:23.444Z,100982.37
2023-01-29T20:58:26.733Z,100988.69
2023-01-29T21:01:29.640Z,100992.78
2023-01-29T21:04:32.741Z,100996.31
2023-01-29T21:07:36.197Z,100992.78
2023-01-29T21:10:39.381Z,100998.88
2023-01-29T21:13:43.998Z,101008.84
2023-01-29T21:16:47.421Z,101006.69
2023-01-29T21:19:50.371Z,101012.44
2023-01-29T21:22:53.971Z,101009.53
2023-01-29T21:26:04.514Z,101015.00
2023-01-29T21:29:07.870Z,101019.09
2023-01-29T21:32:11.671Z,101022.09
2023-01-29T21:35:18.493Z,101024.06
2023-01-29T21:38:22.103Z,101019.44
2023-01-29T21:41:45.379Z,101014.25
2023-01-29T21:44:47.957Z,101020.91
2023-01-29T21:47:51.282Z,101013.97
2023-01-29T21:50:53.841Z,101015.00
2023-01-29T21:53:57.148Z,101011.84
2023-01-29T21:56:59.694Z,101005.69
2023-01-29T22:00:03.491Z,101003.78
2023-01-29T22:03:06.919Z,100997.72
2023-01-29T22:06:10.049Z,100996.47
2023-01-29T22:09:13.297Z,100987.75
2023-01-29T22:12:17.671Z,100991.56
2023-01-29T22:15:22.504Z,100987.22
2023-01-29T22:18:27.291Z,100978.47
2023-01-29T22:21:30.045Z,100977.44
2023-01-29T22:24:33.083Z,100974.00
2023-01-29T22:27:36.013Z,100966.16
2023-01-29T22:30:39.160Z,100965.13
2023-01-29T22:33:42.925Z,100952.53
2023-01-29T22:36:46.095Z,100965.81
2023-01-29T22:39:48.720Z,100949.81
2023-01-29T22:42:51.871Z,100944.97
2023-01-29T22:45:54.825Z,100942.00
2023-01-29T22:48:57.863Z,100946.84
2023-01-29T22:52:12.658Z,100941.63
2023-01-29T22:55:15.806Z,100932.03
2023-01-29T22:58:18.465Z,100933.66
2023-01-29T23:01:24.325Z,100931.87
2023-01-29T23:04:26.991Z,100931.87
2023-01-29T23:07:30.460Z,100926.53
2023-01-29T23:10:33.071Z,100920.38
2023-01-29T23:13:36.234Z,100928.81
2023-01-29T23:16:38.811Z,100921.91
2023-01-29T23:19:42.037Z,100918.44
2023-01-29T23:22:44.621Z,100914.22
2023-01-29T23:26:06.413Z,100917.03
2023-01-29T23:29:09.486Z,100919.13
2023-01-29T23:32:18.688Z,100918.37
2023-01-29T23:35:21.306Z,100906.59
2023-01-29T23:38:24.415Z,100900.91
2023-01-29T23:41:27.056Z,100902.03
2023-01-29T23:44:30.254Z,100897.78
2023-01-29T23:47:32.896Z,100894.97
2023-01-29T23:50:36.264Z,100891.34
2023-01-29T23:53:38.889Z,100892.41
2023-01-29T23:56:42.409Z,100893.16
2023-01-29T23:59:44.940Z,100886.78
